Search for airport 
image banner adimage banner adimage banner ad
image banner ad

CA79 - The Ritz-Carlton Hotel Company

Located in Marina Del Rey, United States

ICAO - CA79, IATA -

Data provided by Airmate  

General information

Coordinates: N33°59'4" W118°27'0"
Elevation is 50 feet MSL.
Magnetic variation is 14° East
View others Airports in California

Operational data

Special qualification required
Current time UTC:
Current local time:
Weather at : KSMO - Santa Monica Muni ( 3 km )
METAR: KSMO 260751Z AUTO 00000KT 10SM OVC007 16/15 A3002 RMK AO2 SLP164 T01610150 401940156
TAF: KSMO 260559Z 2606/2706 VRB03KT P6SM OVC006 FM260800 VRB03KT P6SM OVC009 FM261700 23006KT P6SM BKN011 FM262000 24009KT P6SM SCT015 FM270300 22005KT P6SM BKN012
View NOTAMs / SUP AIP / TFR affecting this airport [VIEW]
Communications frequencies: [VIEW]

Runways:

Airport contact information

Address: Marina Del Rey United States

Satellite view of CA79